createdAt,value
2022-09-27T00:01:10.604Z,14.49
2022-09-27T00:03:38.104Z,14.62
2022-09-27T00:06:10.629Z,14.67
2022-09-27T00:08:38.050Z,14.72
2022-09-27T00:11:09.956Z,14.67
2022-09-27T00:13:36.746Z,14.75
2022-09-27T00:16:07.597Z,14.63
2022-09-27T00:18:35.088Z,14.81
2022-09-27T00:22:09.676Z,14.68
2022-09-27T00:24:36.525Z,14.78
2022-09-27T00:27:03.374Z,14.90
2022-09-27T00:29:30.457Z,15.10
2022-09-27T00:31:57.279Z,15.20
2022-09-27T00:34:26.054Z,15.11
2022-09-27T00:36:53.410Z,15.21
2022-09-27T00:39:20.278Z,15.05
2022-09-27T00:41:47.649Z,15.14
2022-09-27T00:44:29.399Z,15.15
2022-09-27T00:47:23.353Z,15.13
2022-09-27T00:50:25.321Z,15.15
2022-09-27T00:52:58.086Z,15.12
2022-09-27T00:55:36.994Z,15.09
2022-09-27T00:58:06.162Z,15.08
2022-09-27T01:00:33.413Z,15.09
2022-09-27T01:03:01.305Z,14.82
2022-09-27T01:05:29.824Z,14.84
2022-09-27T01:07:56.783Z,14.88
2022-09-27T01:10:25.457Z,14.68
2022-09-27T01:13:13.447Z,14.80
2022-09-27T01:16:01.989Z,14.74
2022-09-27T01:19:01.937Z,14.78
2022-09-27T01:21:41.237Z,14.71
2022-09-27T01:24:20.100Z,14.69
2022-09-27T01:27:22.908Z,14.58
2022-09-27T01:30:22.356Z,14.77
2022-09-27T01:32:52.655Z,14.73
2022-09-27T01:35:37.096Z,14.67
2022-09-27T01:38:19.652Z,14.70
2022-09-27T01:41:07.380Z,14.69
2022-09-27T01:44:13.461Z,14.68
2022-09-27T01:46:45.405Z,14.68
2022-09-27T01:49:20.370Z,14.62
2022-09-27T01:51:59.002Z,14.67
2022-09-27T01:54:45.038Z,14.65
2022-09-27T01:57:18.631Z,14.65
2022-09-27T01:59:58.301Z,14.58
2022-09-27T02:02:28.758Z,14.57
2022-09-27T02:05:03.116Z,14.60
2022-09-27T02:07:39.413Z,14.58
2022-09-27T02:10:14.665Z,14.26
2022-09-27T02:13:08.408Z,14.50
2022-09-27T02:16:22.151Z,14.49
2022-09-27T02:19:06.568Z,14.54
2022-09-27T02:22:22.324Z,14.21
2022-09-27T02:24:59.251Z,14.03
2022-09-27T02:27:32.692Z,14.43
2022-09-27T02:30:08.618Z,14.44
2022-09-27T02:32:35.756Z,14.44
2022-09-27T02:35:29.612Z,14.46
2022-09-27T02:37:57.702Z,14.12
2022-09-27T02:40:30.737Z,14.00
2022-09-27T02:42:58.057Z,14.27
2022-09-27T02:45:39.520Z,14.34
2022-09-27T02:48:47.404Z,14.42
2022-09-27T02:51:46.817Z,13.84
2022-09-27T02:54:33.979Z,13.88
2022-09-27T02:57:37.940Z,14.37
2022-09-27T03:00:18.068Z,14.42
2022-09-27T03:03:22.379Z,14.28
2022-09-27T03:06:05.675Z,14.19
2022-09-27T03:08:32.880Z,14.14
2022-09-27T03:10:59.753Z,14.27
2022-09-27T03:13:27.176Z,13.85
2022-09-27T03:15:57.049Z,13.92
2022-09-27T03:18:26.597Z,14.19
2022-09-27T03:20:54.138Z,14.22
2022-09-27T03:23:21.482Z,14.21
2022-09-27T03:25:48.506Z,14.32
2022-09-27T03:28:15.780Z,14.23
2022-09-27T03:30:42.992Z,14.10
2022-09-27T03:33:09.843Z,14.14
2022-09-27T03:35:37.249Z,13.87
2022-09-27T03:38:04.883Z,14.11
2022-09-27T03:40:31.807Z,14.17
2022-09-27T03:42:58.757Z,14.16
2022-09-27T03:45:25.695Z,13.99
2022-09-27T03:47:52.507Z,14.12
2022-09-27T03:50:19.802Z,13.69
2022-09-27T03:52:46.977Z,14.09
2022-09-27T03:55:14.357Z,13.93
2022-09-27T03:57:46.602Z,13.93
2022-09-27T04:00:14.578Z,14.15
2022-09-27T04:02:42.523Z,14.18
2022-09-27T04:05:09.889Z,14.03
2022-09-27T04:07:37.754Z,13.87
2022-09-27T04:10:05.417Z,14.09
2022-09-27T04:12:33.068Z,14.00
2022-09-27T04:15:00.430Z,14.23
2022-09-27T04:17:27.566Z,14.19
2022-09-27T04:19:54.442Z,14.22
2022-09-27T04:22:21.248Z,14.35
2022-09-27T04:24:48.079Z,14.30
2022-09-27T04:27:15.933Z,14.31
2022-09-27T04:29:45.609Z,14.18
2022-09-27T04:32:13.452Z,14.05
2022-09-27T04:34:59.252Z,14.09
2022-09-27T04:37:27.005Z,14.23
2022-09-27T04:39:53.844Z,14.10
2022-09-27T04:42:20.684Z,14.13
2022-09-27T04:44:47.948Z,13.67
2022-09-27T04:47:14.888Z,13.97
2022-09-27T04:49:41.744Z,14.17
2022-09-27T04:52:08.726Z,14.34
2022-09-27T04:54:35.591Z,13.88
2022-09-27T04:57:02.441Z,13.90
2022-09-27T04:59:29.406Z,14.18
2022-09-27T05:01:59.508Z,14.20
2022-09-27T05:04:27.131Z,13.92
2022-09-27T05:06:57.156Z,13.94
2022-09-27T05:09:24.347Z,14.02
2022-09-27T05:11:51.172Z,13.96
2022-09-27T05:14:18.230Z,13.99
2022-09-27T05:16:45.161Z,14.32
2022-09-27T05:19:12.000Z,14.34
2022-09-27T05:21:38.851Z,14.43
2022-09-27T05:24:05.720Z,14.21
2022-09-27T05:26:32.520Z,14.16
2022-09-27T05:28:59.712Z,14.08
2022-09-27T05:31:26.649Z,13.99
2022-09-27T05:33:54.001Z,14.24
2022-09-27T05:36:20.900Z,14.36
2022-09-27T05:38:49.440Z,14.47
2022-09-27T05:41:17.171Z,14.36
2022-09-27T05:43:44.797Z,14.27
2022-09-27T05:46:12.026Z,13.90
2022-09-27T05:48:38.892Z,14.14
2022-09-27T05:51:06.386Z,14.14
2022-09-27T05:53:33.229Z,14.12
2022-09-27T05:56:04.593Z,14.24
2022-09-27T05:58:31.508Z,14.58
2022-09-27T06:00:58.408Z,14.69
2022-09-27T06:03:25.253Z,14.71
2022-09-27T06:05:52.118Z,14.60
2022-09-27T06:08:22.076Z,14.76
2022-09-27T06:10:48.880Z,15.02
2022-09-27T06:13:17.021Z,14.77
2022-09-27T06:15:47.182Z,14.87
2022-09-27T06:18:17.997Z,15.08
2022-09-27T06:20:45.053Z,14.93
2022-09-27T06:23:22.458Z,15.02
2022-09-27T06:25:51.288Z,15.07
2022-09-27T06:28:19.253Z,15.13
2022-09-27T06:30:50.759Z,15.09
2022-09-27T06:33:20.509Z,15.34
2022-09-27T06:35:49.184Z,14.97
2022-09-27T06:38:18.230Z,15.20
2022-09-27T06:40:46.079Z,15.44
2022-09-27T06:43:20.844Z,15.49
2022-09-27T06:45:48.191Z,15.65
2022-09-27T06:48:17.006Z,15.84
2022-09-27T06:50:45.910Z,16.03
2022-09-27T06:53:15.920Z,16.04
2022-09-27T06:55:43.106Z,15.29
2022-09-27T06:58:30.038Z,15.63
2022-09-27T07:00:58.601Z,16.02
2022-09-27T07:03:38.911Z,16.39
2022-09-27T07:06:24.904Z,17.07
2022-09-27T07:08:53.560Z,17.50
2022-09-27T07:11:23.337Z,17.45
2022-09-27T07:13:51.448Z,17.09
2022-09-27T07:16:19.036Z,16.93
2022-09-27T07:18:49.661Z,15.96
2022-09-27T07:21:16.482Z,16.21
2022-09-27T07:23:43.375Z,16.44
2022-09-27T07:26:11.168Z,16.76
2022-09-27T07:28:41.517Z,16.52
2022-09-27T07:31:09.286Z,16.51
2022-09-27T07:33:38.904Z,16.33
2022-09-27T07:36:11.393Z,16.62
2022-09-27T07:38:38.370Z,16.94
2022-09-27T07:41:14.741Z,17.23
2022-09-27T07:43:45.156Z,16.81
2022-09-27T07:46:13.455Z,17.35
2022-09-27T07:48:41.120Z,16.97
2022-09-27T07:51:10.673Z,16.98
2022-09-27T07:53:37.549Z,16.81
2022-09-27T07:56:04.504Z,16.51
2022-09-27T07:58:32.273Z,16.56
2022-09-27T08:01:00.944Z,16.82
2022-09-27T08:03:28.422Z,17.13
2022-09-27T08:05:55.326Z,17.08
2022-09-27T08:08:22.146Z,16.92
2022-09-27T08:10:48.931Z,16.63
2022-09-27T08:13:20.334Z,16.47
2022-09-27T08:15:48.548Z,16.54
2022-09-27T08:18:15.442Z,15.70
2022-09-27T08:20:42.305Z,15.65
2022-09-27T08:23:09.419Z,15.68
2022-09-27T08:25:36.338Z,15.32
2022-09-27T08:28:04.841Z,15.60
2022-09-27T08:30:32.482Z,15.12
2022-09-27T08:33:01.154Z,14.42
2022-09-27T08:35:28.852Z,15.22
2022-09-27T08:37:59.622Z,15.30
2022-09-27T08:40:49.049Z,15.51
2022-09-27T08:43:39.628Z,16.38
2022-09-27T08:46:28.131Z,16.77
2022-09-27T08:49:06.864Z,16.27
2022-09-27T08:51:35.350Z,16.46
2022-09-27T08:54:08.883Z,16.56
2022-09-27T08:56:37.124Z,17.12
2022-09-27T08:59:21.956Z,16.65
2022-09-27T09:01:50.766Z,17.13
2022-09-27T09:04:31.630Z,16.94
2022-09-27T09:07:51.616Z,17.00
2022-09-27T09:11:11.821Z,16.96
2022-09-27T09:14:24.973Z,16.12
2022-09-27T09:17:16.821Z,16.93
2022-09-27T09:19:54.628Z,16.81
2022-09-27T09:22:48.729Z,17.32
2022-09-27T09:25:53.546Z,17.05
2022-09-27T09:29:08.899Z,17.83
2022-09-27T09:31:44.720Z,18.43
2022-09-27T09:34:20.075Z,18.28
2022-09-27T09:36:59.859Z,18.89
2022-09-27T09:39:34.878Z,19.35
2022-09-27T09:42:53.018Z,19.27
2022-09-27T09:45:19.829Z,19.18
2022-09-27T09:48:23.144Z,18.11
2022-09-27T09:50:54.849Z,17.88
2022-09-27T09:53:35.193Z,18.02
2022-09-27T09:56:22.157Z,17.61
2022-09-27T09:59:04.786Z,17.41
2022-09-27T10:01:39.634Z,17.35
2022-09-27T10:04:06.601Z,17.03
2022-09-27T10:06:33.521Z,16.55
2022-09-27T10:09:01.823Z,16.74
2022-09-27T10:11:48.018Z,16.79
2022-09-27T10:14:18.961Z,17.08
2022-09-27T10:16:58.094Z,17.15
2022-09-27T10:19:34.000Z,16.81
2022-09-27T10:22:40.093Z,16.43
2022-09-27T10:25:09.323Z,16.75
2022-09-27T10:27:56.304Z,16.37
2022-09-27T10:30:24.778Z,16.51
2022-09-27T10:32:56.939Z,16.74
2022-09-27T10:35:29.995Z,16.59
2022-09-27T10:38:16.930Z,17.24
2022-09-27T10:40:44.043Z,17.70
2022-09-27T10:43:32.303Z,17.44
2022-09-27T10:46:22.058Z,17.36
2022-09-27T10:48:49.157Z,17.89
2022-09-27T10:51:32.350Z,18.75
2022-09-27T10:54:01.021Z,19.69
2022-09-27T10:56:33.360Z,20.00
2022-09-27T10:59:00.816Z,19.22
2022-09-27T11:01:42.838Z,19.16
2022-09-27T11:04:28.202Z,18.73
2022-09-27T11:07:16.605Z,18.23
2022-09-27T11:09:56.473Z,17.25
2022-09-27T11:12:25.159Z,17.41
2022-09-27T11:15:24.346Z,18.27
2022-09-27T11:18:14.439Z,18.71
2022-09-27T11:21:32.136Z,20.07
2022-09-27T11:24:23.597Z,20.81
2022-09-27T11:27:25.909Z,21.94
2022-09-27T11:30:22.961Z,22.21
2022-09-27T11:34:05.588Z,22.13
2022-09-27T11:36:53.766Z,20.70
2022-09-27T11:39:40.066Z,20.05
2022-09-27T11:42:46.770Z,19.48
2022-09-27T11:48:58.452Z,18.66
2022-09-27T11:51:51.640Z,18.65
2022-09-27T11:55:05.507Z,18.51
2022-09-27T11:57:41.820Z,18.61
2022-09-27T12:00:25.127Z,18.38
2022-09-27T12:03:56.860Z,18.25
2022-09-27T12:06:54.504Z,17.91
2022-09-27T12:09:29.196Z,18.06
2022-09-27T12:12:10.241Z,16.84
2022-09-27T12:14:56.338Z,17.69
2022-09-27T12:17:31.146Z,19.30
2022-09-27T12:20:07.084Z,18.99
2022-09-27T12:22:58.536Z,19.34
2022-09-27T12:25:32.270Z,20.08
2022-09-27T12:28:03.969Z,19.79
2022-09-27T12:30:34.610Z,20.58
2022-09-27T12:33:21.681Z,20.19
2022-09-27T12:35:54.257Z,19.82
2022-09-27T12:38:42.776Z,19.53
2022-09-27T12:41:15.354Z,19.82
2022-09-27T12:43:48.907Z,18.84
2022-09-27T12:46:42.057Z,22.60
2022-09-27T12:49:48.076Z,25.50
2022-09-27T12:52:25.425Z,26.17
2022-09-27T12:55:18.367Z,27.10
2022-09-27T12:58:22.767Z,28.05
2022-09-27T13:01:10.148Z,29.87
2022-09-27T13:04:04.645Z,29.77
2022-09-27T13:06:40.323Z,28.43
2022-09-27T13:09:22.064Z,27.96
2022-09-27T13:12:17.741Z,26.68
2022-09-27T13:15:06.933Z,22.65
2022-09-27T13:17:40.392Z,26.44
2022-09-27T13:20:37.302Z,27.95
2022-09-27T13:23:24.256Z,28.46
2022-09-27T13:25:56.201Z,29.93
2022-09-27T13:28:31.991Z,27.88
2022-09-27T13:31:15.949Z,28.45
2022-09-27T13:33:53.567Z,29.46
2022-09-27T13:36:33.756Z,25.06
2022-09-27T13:39:11.310Z,23.64
2022-09-27T13:42:15.353Z,25.31
2022-09-27T13:45:03.983Z,23.83
2022-09-27T13:47:40.234Z,24.62
2022-09-27T13:50:37.821Z,26.44
2022-09-27T13:53:22.664Z,26.12
2022-09-27T13:55:52.785Z,26.34
2022-09-27T13:58:19.481Z,23.98
2022-09-27T14:00:51.462Z,22.62
2022-09-27T14:03:54.180Z,20.58
2022-09-27T14:06:32.183Z,20.46
2022-09-27T14:09:04.673Z,19.59
2022-09-27T14:11:38.214Z,21.01
2022-09-27T14:14:06.501Z,20.68
2022-09-27T14:16:36.519Z,19.88
2022-09-27T14:19:04.057Z,20.05
2022-09-27T14:21:38.320Z,18.24
2022-09-27T14:24:23.983Z,17.92
2022-09-27T14:27:03.517Z,17.68
2022-09-27T14:29:36.546Z,17.51
2022-09-27T14:32:28.977Z,17.79
2022-09-27T14:35:27.290Z,17.09
2022-09-27T14:37:54.657Z,17.14
2022-09-27T14:40:22.974Z,17.04
2022-09-27T14:42:59.037Z,16.62
2022-09-27T14:45:40.131Z,16.58
2022-09-27T14:48:20.736Z,16.50
2022-09-27T14:51:19.231Z,16.03
2022-09-27T14:54:01.012Z,15.98
2022-09-27T14:56:32.305Z,15.88
2022-09-27T14:59:14.541Z,15.76
2022-09-27T15:01:50.485Z,15.89
2022-09-27T15:04:19.326Z,15.74
2022-09-27T15:06:47.660Z,15.93
2022-09-27T15:09:17.073Z,15.69
2022-09-27T15:11:49.421Z,16.14
2022-09-27T15:14:21.853Z,16.08
2022-09-27T15:16:52.376Z,16.54
2022-09-27T15:19:27.797Z,16.11
2022-09-27T15:21:55.618Z,15.83
2022-09-27T15:24:46.678Z,16.27
2022-09-27T15:27:18.014Z,15.79
2022-09-27T15:29:53.946Z,15.45
2022-09-27T15:32:24.223Z,15.45
2022-09-27T15:34:51.146Z,15.31
2022-09-27T15:37:35.347Z,15.24
2022-09-27T15:40:20.408Z,15.06
2022-09-27T15:43:02.074Z,15.04
2022-09-27T15:45:35.221Z,15.17
2022-09-27T15:48:32.078Z,14.87
2022-09-27T15:50:59.441Z,14.72
2022-09-27T15:53:35.309Z,14.74
2022-09-27T15:56:06.418Z,14.85
2022-09-27T15:58:34.486Z,14.10
2022-09-27T16:01:05.577Z,14.22
2022-09-27T16:03:33.180Z,14.16
2022-09-27T16:06:02.617Z,14.61
2022-09-27T16:08:29.665Z,14.18
2022-09-27T16:10:59.003Z,14.63
2022-09-27T16:13:32.469Z,14.61
2022-09-27T16:16:00.389Z,14.52
2022-09-27T16:18:30.588Z,14.44
2022-09-27T16:20:59.115Z,14.54
2022-09-27T16:23:26.250Z,14.51
2022-09-27T16:25:53.813Z,14.53
2022-09-27T16:28:20.825Z,14.47
2022-09-27T16:30:48.108Z,14.35
2022-09-27T16:33:15.314Z,14.43
2022-09-27T16:35:42.163Z,14.43
2022-09-27T16:38:09.232Z,14.38
2022-09-27T16:40:37.377Z,14.07
2022-09-27T16:43:07.181Z,14.09
2022-09-27T16:45:36.322Z,13.96
2022-09-27T16:48:03.546Z,13.86
2022-09-27T16:50:48.694Z,14.01
2022-09-27T16:53:15.961Z,13.68
2022-09-27T16:55:42.885Z,13.57
2022-09-27T16:58:09.767Z,13.57
2022-09-27T17:00:37.263Z,13.82
2022-09-27T17:03:04.441Z,13.74
2022-09-27T17:05:31.728Z,13.81
2022-09-27T17:07:58.811Z,13.58
2022-09-27T17:10:25.905Z,13.54
2022-09-27T17:12:52.796Z,13.45
2022-09-27T17:15:20.339Z,13.42
2022-09-27T17:17:50.460Z,13.45
2022-09-27T17:20:17.833Z,13.45
2022-09-27T17:22:44.664Z,13.40
2022-09-27T17:25:11.630Z,13.25
2022-09-27T17:27:38.454Z,13.17
2022-09-27T17:30:06.873Z,13.07
2022-09-27T17:32:34.782Z,12.91
2022-09-27T17:35:02.544Z,12.60
2022-09-27T17:37:29.616Z,12.97
2022-09-27T17:39:57.451Z,13.00
2022-09-27T17:42:25.347Z,13.12
2022-09-27T17:44:52.275Z,12.91
2022-09-27T17:47:37.388Z,12.68
2022-09-27T17:50:22.842Z,12.78
2022-09-27T17:52:49.745Z,12.73
2022-09-27T17:55:16.874Z,12.92
2022-09-27T17:57:43.664Z,12.18
2022-09-27T18:00:11.040Z,12.48
2022-09-27T18:02:38.023Z,12.81
2022-09-27T18:05:05.592Z,12.13
2022-09-27T18:07:33.345Z,12.23
2022-09-27T18:10:00.371Z,12.18
2022-09-27T18:12:31.881Z,12.37
2022-09-27T18:14:59.018Z,12.37
2022-09-27T18:17:27.701Z,12.40
2022-09-27T18:19:56.946Z,12.61
2022-09-27T18:22:26.397Z,12.63
2022-09-27T18:24:53.198Z,12.58
2022-09-27T18:27:20.077Z,12.63
2022-09-27T18:29:47.170Z,12.62
2022-09-27T18:32:14.045Z,12.53
2022-09-27T18:34:40.939Z,12.75
2022-09-27T18:37:07.783Z,12.78
2022-09-27T18:39:34.612Z,12.89
2022-09-27T18:42:01.556Z,12.74
2022-09-27T18:44:28.376Z,12.87
2022-09-27T18:46:55.293Z,12.96
2022-09-27T18:49:26.192Z,12.85
2022-09-27T18:51:54.623Z,12.56
2022-09-27T18:54:22.647Z,12.36
2022-09-27T18:56:52.119Z,12.42
2022-09-27T18:59:21.546Z,12.59
2022-09-27T19:01:48.514Z,12.76
2022-09-27T19:04:26.750Z,12.65
2022-09-27T19:06:55.432Z,12.57
2022-09-27T19:09:22.786Z,12.75
2022-09-27T19:11:49.713Z,12.49
2022-09-27T19:14:20.019Z,12.77
2022-09-27T19:16:48.024Z,12.80
2022-09-27T19:19:16.615Z,12.81
2022-09-27T19:21:43.861Z,12.90
2022-09-27T19:24:11.694Z,13.01
2022-09-27T19:26:39.899Z,12.94
2022-09-27T19:29:06.983Z,13.15
2022-09-27T19:31:35.550Z,13.16
2022-09-27T19:34:02.466Z,12.94
2022-09-27T19:36:29.405Z,12.82
2022-09-27T19:38:58.753Z,12.89
2022-09-27T19:41:27.178Z,12.94
2022-09-27T19:43:56.475Z,13.03
2022-09-27T19:46:25.420Z,13.07
2022-09-27T19:48:54.021Z,12.99
2022-09-27T19:51:26.861Z,13.23
2022-09-27T19:53:54.574Z,13.25
2022-09-27T19:56:22.211Z,13.21
2022-09-27T19:58:49.370Z,13.09
2022-09-27T20:01:20.432Z,13.18
2022-09-27T20:03:49.888Z,13.15
2022-09-27T20:06:19.608Z,13.37
2022-09-27T20:08:50.087Z,13.24
2022-09-27T20:11:23.253Z,13.04
2022-09-27T20:13:53.049Z,13.24
2022-09-27T20:16:23.640Z,12.84
2022-09-27T20:18:59.589Z,13.06
2022-09-27T20:21:32.450Z,13.18
2022-09-27T20:24:01.985Z,13.16
2022-09-27T20:26:30.921Z,13.16
2022-09-27T20:29:00.553Z,13.25
2022-09-27T20:31:33.564Z,13.26
2022-09-27T20:34:01.138Z,13.23
2022-09-27T20:36:31.700Z,13.27
2022-09-27T20:39:03.879Z,13.20
2022-09-27T20:41:34.102Z,12.99
2022-09-27T20:44:04.457Z,13.04
2022-09-27T20:46:32.267Z,13.22
2022-09-27T20:49:12.818Z,13.15
2022-09-27T20:51:42.794Z,13.13
2022-09-27T20:54:12.590Z,13.01
2022-09-27T20:56:48.223Z,13.14
2022-09-27T20:59:23.346Z,13.20
2022-09-27T21:01:51.903Z,13.18
2022-09-27T21:04:22.296Z,13.17
2022-09-27T21:06:49.099Z,13.14
2022-09-27T21:09:19.619Z,13.01
2022-09-27T21:11:48.548Z,13.02
2022-09-27T21:14:15.600Z,13.15
2022-09-27T21:16:42.480Z,13.17
2022-09-27T21:19:09.984Z,12.62
2022-09-27T21:21:36.979Z,12.69
2022-09-27T21:24:03.953Z,12.43
2022-09-27T21:26:32.948Z,12.25
2022-09-27T21:29:03.970Z,12.48
2022-09-27T21:31:32.385Z,12.30
2022-09-27T21:34:01.824Z,12.08
2022-09-27T21:36:32.054Z,12.17
2022-09-27T21:38:59.443Z,12.31
2022-09-27T21:41:27.065Z,12.17
2022-09-27T21:43:54.537Z,12.07
2022-09-27T21:46:25.078Z,12.09
2022-09-27T21:48:57.811Z,11.87
2022-09-27T21:51:28.228Z,11.93
2022-09-27T21:53:58.360Z,12.05
2022-09-27T21:56:32.589Z,11.86
2022-09-27T21:58:59.551Z,11.83
2022-09-27T22:01:30.369Z,11.85
2022-09-27T22:03:58.794Z,11.76
2022-09-27T22:06:31.450Z,11.78
2022-09-27T22:09:00.334Z,11.80
2022-09-27T22:11:44.201Z,11.77
2022-09-27T22:14:12.664Z,11.85
2022-09-27T22:16:39.568Z,11.94
2022-09-27T22:19:06.923Z,11.99
2022-09-27T22:21:38.904Z,12.10
2022-09-27T22:24:13.271Z,11.96
2022-09-27T22:26:42.316Z,11.93
2022-09-27T22:29:09.238Z,12.08
2022-09-27T22:31:37.184Z,12.14
2022-09-27T22:34:07.028Z,12.06
2022-09-27T22:36:34.710Z,11.92
2022-09-27T22:39:01.897Z,11.91
2022-09-27T22:41:30.331Z,12.02
2022-09-27T22:43:57.890Z,12.08
2022-09-27T22:46:25.281Z,12.14
2022-09-27T22:48:52.353Z,12.16
2022-09-27T22:51:19.399Z,12.09
2022-09-27T22:53:46.411Z,12.09
2022-09-27T22:56:17.138Z,12.03
2022-09-27T22:58:44.788Z,12.00
2022-09-27T23:01:21.189Z,12.24
2022-09-27T23:03:50.384Z,12.22
2022-09-27T23:06:19.550Z,12.10
2022-09-27T23:08:47.330Z,12.12
2022-09-27T23:11:19.860Z,12.24
2022-09-27T23:13:48.357Z,12.04
2022-09-27T23:16:24.243Z,12.05
2022-09-27T23:18:56.506Z,12.04
2022-09-27T23:21:25.510Z,12.15
2022-09-27T23:23:54.981Z,12.20
2022-09-27T23:26:25.945Z,12.01
2022-09-27T23:29:01.201Z,12.11
2022-09-27T23:31:31.041Z,12.15
2022-09-27T23:33:59.256Z,12.00
2022-09-27T23:36:27.582Z,11.82
2022-09-27T23:38:58.451Z,11.94
2022-09-27T23:41:25.792Z,12.05
2022-09-27T23:43:53.360Z,12.00
2022-09-27T23:46:21.150Z,12.30
2022-09-27T23:48:48.512Z,12.33
2022-09-27T23:51:15.332Z,12.38
2022-09-27T23:53:42.144Z,12.33
2022-09-27T23:56:16.320Z,12.28
2022-09-27T23:58:45.693Z,12.11
